createdAt,value
2018-07-17T00:00:10.490Z,4.87
2018-07-17T00:02:39.409Z,4.33
2018-07-17T00:05:09.010Z,5.00
2018-07-17T00:07:38.115Z,4.87
2018-07-17T00:10:07.345Z,4.73
2018-07-17T00:12:36.018Z,5.10
2018-07-17T00:15:04.776Z,4.93
2018-07-17T00:17:34.014Z,5.13
2018-07-17T00:20:02.633Z,4.87
2018-07-17T00:22:31.241Z,5.37
2018-07-17T00:25:00.085Z,5.17
2018-07-17T00:27:28.702Z,5.30
2018-07-17T00:29:57.405Z,5.13
2018-07-17T00:32:26.029Z,5.50
2018-07-17T00:34:54.680Z,6.00
2018-07-17T00:37:23.236Z,5.30
2018-07-17T00:39:52.032Z,5.90
2018-07-17T00:42:20.953Z,5.70
2018-07-17T00:44:49.801Z,5.50
2018-07-17T00:47:18.643Z,5.10
2018-07-17T00:49:47.220Z,6.50
2018-07-17T00:52:15.887Z,5.77
2018-07-17T00:54:44.700Z,5.10
2018-07-17T00:57:13.385Z,5.33
2018-07-17T00:59:42.000Z,6.20
2018-07-17T01:02:15.984Z,5.73
2018-07-17T01:04:49.892Z,5.53
2018-07-17T01:07:23.919Z,5.80
2018-07-17T01:09:57.830Z,6.20
2018-07-17T01:12:25.558Z,6.53
2018-07-17T01:14:59.997Z,5.80
2018-07-17T01:17:29.107Z,6.00
2018-07-17T01:19:57.854Z,5.50
2018-07-17T01:22:26.443Z,6.23
2018-07-17T01:24:55.041Z,5.07
2018-07-17T01:27:23.716Z,5.70
2018-07-17T01:29:52.429Z,6.17
2018-07-17T01:32:21.017Z,5.70
2018-07-17T01:34:49.640Z,5.77
2018-07-17T01:37:18.422Z,5.40
2018-07-17T01:39:47.007Z,6.43
2018-07-17T01:42:15.583Z,5.67
2018-07-17T01:44:44.221Z,5.43
2018-07-17T01:47:13.339Z,5.27
2018-07-17T01:49:41.937Z,5.20
2018-07-17T01:52:10.653Z,5.57
2018-07-17T01:54:39.315Z,5.80
2018-07-17T01:57:08.181Z,5.87
2018-07-17T01:59:36.761Z,5.90
2018-07-17T02:02:07.737Z,5.60
2018-07-17T02:04:36.381Z,5.47
2018-07-17T02:07:05.052Z,5.03
2018-07-17T02:09:33.666Z,6.00
2018-07-17T02:12:02.329Z,5.77
2018-07-17T02:14:31.025Z,5.93
2018-07-17T02:16:59.662Z,5.37
2018-07-17T02:19:28.278Z,5.97
2018-07-17T02:21:56.852Z,6.23
2018-07-17T02:24:25.562Z,7.00
2018-07-17T02:26:54.205Z,6.33
2018-07-17T02:29:22.772Z,6.50
2018-07-17T02:31:51.500Z,6.67
2018-07-17T02:34:22.040Z,6.50
2018-07-17T02:36:50.639Z,5.87
2018-07-17T02:39:19.344Z,6.40
2018-07-17T02:41:47.969Z,7.03
2018-07-17T02:44:16.605Z,6.47
2018-07-17T02:46:45.262Z,6.67
2018-07-17T02:49:13.945Z,7.27
2018-07-17T02:51:42.565Z,7.80
2018-07-17T02:54:11.135Z,7.30
2018-07-17T02:56:39.781Z,7.30
2018-07-17T02:59:08.462Z,7.57
2018-07-17T03:01:37.018Z,7.80
2018-07-17T03:04:05.661Z,7.10
2018-07-17T03:06:34.290Z,7.40
2018-07-17T03:09:03.057Z,7.33
2018-07-17T03:11:31.641Z,7.13
2018-07-17T03:14:00.498Z,7.60
2018-07-17T03:16:29.142Z,7.63
2018-07-17T03:18:57.841Z,8.07
2018-07-17T03:21:26.470Z,8.60
2018-07-17T03:23:55.155Z,8.20
2018-07-17T03:26:23.738Z,8.20
2018-07-17T03:28:52.363Z,7.70
2018-07-17T03:31:21.643Z,8.07
2018-07-17T03:33:50.236Z,7.30
2018-07-17T03:36:18.885Z,8.07
2018-07-17T03:38:47.529Z,7.90
2018-07-17T03:41:16.169Z,7.40
2018-07-17T03:43:44.805Z,7.20
2018-07-17T03:46:13.469Z,7.20
2018-07-17T03:48:42.153Z,7.37
2018-07-17T03:51:10.872Z,7.23
2018-07-17T03:53:39.489Z,7.83
2018-07-17T03:56:08.091Z,6.97
2018-07-17T03:58:36.740Z,7.73
2018-07-17T04:01:05.483Z,7.40
2018-07-17T04:03:34.037Z,7.07
2018-07-17T04:06:02.715Z,7.00
2018-07-17T04:08:31.017Z,7.40
2018-07-17T04:10:59.820Z,7.70
2018-07-17T04:13:28.798Z,7.33
2018-07-17T04:15:57.479Z,6.77
2018-07-17T04:18:26.160Z,7.23
2018-07-17T04:20:55.005Z,6.23
2018-07-17T04:23:23.840Z,6.87
2018-07-17T04:25:52.557Z,7.23
2018-07-17T04:28:21.434Z,6.33
2018-07-17T04:30:50.441Z,6.40
2018-07-17T04:33:19.452Z,7.10
2018-07-17T04:35:48.844Z,6.80
2018-07-17T04:38:17.752Z,7.20
2018-07-17T04:40:46.449Z,7.73
2018-07-17T04:43:15.220Z,6.50
2018-07-17T04:45:43.962Z,7.03
2018-07-17T04:48:12.962Z,6.90
2018-07-17T04:50:41.784Z,7.20
2018-07-17T04:53:10.447Z,7.40
2018-07-17T04:55:39.084Z,6.63
2018-07-17T04:58:08.054Z,6.43
2018-07-17T05:00:36.709Z,7.20
2018-07-17T05:03:05.421Z,7.20
2018-07-17T05:05:34.017Z,8.00
2018-07-17T05:08:02.669Z,7.20
2018-07-17T05:10:31.444Z,7.40
2018-07-17T05:13:00.284Z,7.37
2018-07-17T05:15:28.946Z,7.77
2018-07-17T05:17:57.560Z,8.10
2018-07-17T05:20:26.496Z,8.93
2018-07-17T05:22:55.293Z,8.30
2018-07-17T05:25:23.816Z,8.67
2018-07-17T05:27:52.383Z,7.93
2018-07-17T05:30:21.181Z,8.20
2018-07-17T05:32:50.083Z,8.67
2018-07-17T05:35:18.941Z,8.20
2018-07-17T05:37:47.744Z,8.10
2018-07-17T05:40:16.757Z,8.10
2018-07-17T05:42:46.229Z,8.60
2018-07-17T05:45:15.156Z,7.70
2018-07-17T05:47:43.837Z,8.40
2018-07-17T05:50:13.148Z,7.73
2018-07-17T05:52:42.386Z,7.60
2018-07-17T05:55:10.949Z,8.10
2018-07-17T05:57:39.793Z,8.33
2018-07-17T06:00:09.024Z,8.50
2018-07-17T06:02:37.656Z,7.43
2018-07-17T06:05:06.566Z,8.20
2018-07-17T06:07:35.574Z,7.40
2018-07-17T06:10:04.823Z,8.47
2018-07-17T06:12:33.769Z,8.07
2018-07-17T06:15:03.522Z,8.23
2018-07-17T06:17:32.256Z,7.43
2018-07-17T06:20:00.874Z,8.50
2018-07-17T06:22:29.857Z,8.70
2018-07-17T06:24:58.580Z,8.50
2018-07-17T06:27:27.321Z,8.50
2018-07-17T06:29:56.078Z,8.37
2018-07-17T06:32:24.764Z,8.47
2018-07-17T06:34:53.573Z,7.90
2018-07-17T06:37:22.507Z,7.73
2018-07-17T06:39:51.069Z,8.00
2018-07-17T06:42:20.380Z,7.87
2018-07-17T06:44:49.298Z,7.70
2018-07-17T06:47:18.058Z,7.30
2018-07-17T06:49:47.022Z,7.50
2018-07-17T06:52:16.300Z,7.40
2018-07-17T06:54:44.934Z,7.27
2018-07-17T06:57:13.549Z,7.00
2018-07-17T06:59:42.260Z,6.70
2018-07-17T07:02:11.093Z,6.43
2018-07-17T07:04:39.694Z,6.93
2018-07-17T07:07:08.334Z,7.47
2018-07-17T07:09:36.963Z,7.17
2018-07-17T07:12:06.204Z,6.40
2018-07-17T07:14:34.400Z,7.10
2018-07-17T07:17:02.988Z,6.30
2018-07-17T07:19:31.691Z,5.73
2018-07-17T07:22:00.305Z,6.30
2018-07-17T07:24:28.981Z,5.33
2018-07-17T07:26:57.597Z,6.17
2018-07-17T07:29:26.306Z,6.40
2018-07-17T07:31:54.901Z,6.20
2018-07-17T07:34:23.802Z,5.50
2018-07-17T07:36:52.446Z,5.17
2018-07-17T07:39:21.145Z,5.60
2018-07-17T07:41:49.790Z,6.17
2018-07-17T07:44:18.417Z,5.17
2018-07-17T07:46:47.640Z,6.23
2018-07-17T07:49:16.307Z,6.27
2018-07-17T07:51:45.041Z,5.63
2018-07-17T07:54:13.736Z,6.13
2018-07-17T07:56:42.324Z,5.60
2018-07-17T07:59:10.941Z,6.07
2018-07-17T08:01:39.502Z,6.10
2018-07-17T08:04:08.089Z,5.47
2018-07-17T08:06:36.684Z,5.30
2018-07-17T08:09:07.705Z,4.97
2018-07-17T08:11:36.474Z,5.50
2018-07-17T08:14:05.238Z,5.63
2018-07-17T08:16:33.896Z,5.50
2018-07-17T08:19:02.453Z,5.57
2018-07-17T08:21:31.162Z,5.30
2018-07-17T08:23:59.810Z,5.60
2018-07-17T08:26:28.429Z,5.50
2018-07-17T08:28:56.747Z,5.03
2018-07-17T08:31:25.483Z,4.60
2018-07-17T08:33:54.133Z,4.97
2018-07-17T08:36:22.706Z,5.27
2018-07-17T08:38:51.271Z,4.93
2018-07-17T08:41:19.878Z,5.43
2018-07-17T08:43:48.546Z,5.17
2018-07-17T08:46:17.558Z,4.53
2018-07-17T08:48:46.242Z,4.90
2018-07-17T08:51:14.922Z,5.17
2018-07-17T08:53:43.602Z,5.03
2018-07-17T08:56:12.305Z,5.00
2018-07-17T08:58:43.121Z,5.10
2018-07-17T09:01:11.896Z,4.93
2018-07-17T09:03:40.454Z,5.30
2018-07-17T09:06:09.512Z,4.33
2018-07-17T09:08:38.140Z,4.70
2018-07-17T09:11:07.517Z,4.90
2018-07-17T09:13:36.535Z,4.70
2018-07-17T09:16:05.436Z,5.10
2018-07-17T09:18:34.778Z,4.97
2018-07-17T09:21:03.565Z,4.50
2018-07-17T09:23:32.545Z,5.17
2018-07-17T09:26:01.336Z,4.10
2018-07-17T09:28:30.062Z,4.30
2018-07-17T09:30:58.638Z,4.33
2018-07-17T09:33:27.488Z,4.80
2018-07-17T09:35:56.037Z,5.07
2018-07-17T09:38:24.914Z,4.80
2018-07-17T09:40:53.970Z,4.00
2018-07-17T09:43:22.689Z,3.77
2018-07-17T09:45:51.942Z,3.37
2018-07-17T09:48:20.870Z,3.43
2018-07-17T09:50:49.669Z,4.10
2018-07-17T09:53:18.355Z,4.43
2018-07-17T09:55:47.248Z,4.07
2018-07-17T09:58:16.319Z,5.00
2018-07-17T10:00:50.540Z,5.20
2018-07-17T10:03:19.326Z,5.10
2018-07-17T10:05:48.072Z,5.20
2018-07-17T10:08:16.846Z,5.00
2018-07-17T10:10:45.670Z,4.30
2018-07-17T10:13:14.408Z,4.23
2018-07-17T10:15:43.321Z,3.83
2018-07-17T10:18:12.232Z,4.40
2018-07-17T10:20:41.003Z,4.73
2018-07-17T10:23:09.872Z,4.73
2018-07-17T10:25:39.049Z,4.20
2018-07-17T10:28:08.017Z,4.50
2018-07-17T10:30:37.278Z,4.53
2018-07-17T10:33:06.338Z,5.27
2018-07-17T10:35:35.568Z,5.00
2018-07-17T10:38:04.196Z,5.30
2018-07-17T10:40:33.187Z,4.93
2018-07-17T10:43:02.061Z,5.27
2018-07-17T10:45:31.024Z,5.77
2018-07-17T10:47:59.746Z,4.47
2018-07-17T10:50:28.678Z,4.07
2018-07-17T10:52:57.437Z,3.07
2018-07-17T10:55:26.712Z,3.07
2018-07-17T10:57:55.698Z,2.50
2018-07-17T11:00:24.645Z,2.70
2018-07-17T11:02:53.485Z,4.00
2018-07-17T11:05:23.209Z,3.93
2018-07-17T11:07:52.203Z,3.90
2018-07-17T11:10:21.076Z,3.30
2018-07-17T11:12:50.740Z,3.65
2018-07-17T11:15:19.514Z,2.77
2018-07-17T11:17:48.249Z,3.07
2018-07-17T11:20:16.973Z,2.83
2018-07-17T11:22:45.630Z,3.10
2018-07-17T11:25:14.333Z,2.43
2018-07-17T11:27:43.237Z,3.13
2018-07-17T11:30:12.326Z,3.50
2018-07-17T11:32:41.012Z,4.07
2018-07-17T11:35:09.886Z,3.70
2018-07-17T11:37:38.701Z,4.07
2018-07-17T11:40:07.463Z,4.57
2018-07-17T11:42:36.157Z,4.20
2018-07-17T11:45:07.060Z,4.00
2018-07-17T11:47:35.886Z,3.80
2018-07-17T11:50:05.248Z,4.87
2018-07-17T11:52:34.119Z,4.27
2018-07-17T11:55:03.187Z,3.30
2018-07-17T11:57:31.861Z,3.57
2018-07-17T12:00:00.593Z,3.67
2018-07-17T12:02:29.367Z,3.13
2018-07-17T12:04:58.243Z,3.13
2018-07-17T12:07:26.805Z,3.00
2018-07-17T12:09:55.497Z,3.17
2018-07-17T12:12:24.365Z,3.47
2018-07-17T12:14:52.838Z,2.97
2018-07-17T12:17:21.756Z,3.20
2018-07-17T12:19:50.612Z,3.10
2018-07-17T12:22:19.670Z,2.73
2018-07-17T12:24:48.617Z,3.10
2018-07-17T12:27:17.839Z,3.13
2018-07-17T12:29:46.700Z,2.90
2018-07-17T12:32:15.445Z,2.80
2018-07-17T12:34:44.273Z,2.90
2018-07-17T12:37:13.230Z,2.70
2018-07-17T12:39:42.141Z,2.70
2018-07-17T12:42:10.893Z,2.40
2018-07-17T12:44:39.652Z,2.80
2018-07-17T12:47:08.407Z,2.50
2018-07-17T12:49:37.467Z,2.53
2018-07-17T12:52:06.182Z,2.63
2018-07-17T12:54:35.166Z,3.12
2018-07-17T12:57:03.765Z,3.20
2018-07-17T12:59:32.632Z,3.50
2018-07-17T13:02:01.490Z,3.97
2018-07-17T13:04:30.282Z,4.00
2018-07-17T13:06:59.030Z,4.10
2018-07-17T13:09:27.629Z,4.03
2018-07-17T13:11:56.674Z,4.03
2018-07-17T13:14:25.528Z,4.10
2018-07-17T13:16:54.270Z,3.87
2018-07-17T13:19:22.986Z,4.20
2018-07-17T13:21:51.811Z,4.03
2018-07-17T13:24:20.505Z,3.83
2018-07-17T13:26:49.190Z,3.47
2018-07-17T13:29:18.001Z,3.27
2018-07-17T13:31:46.760Z,3.50
2018-07-17T13:34:15.567Z,3.47
2018-07-17T13:36:44.149Z,3.60
2018-07-17T13:39:13.637Z,3.67
2018-07-17T13:41:42.427Z,3.80
2018-07-17T13:44:11.001Z,4.20
2018-07-17T13:46:39.544Z,3.80
2018-07-17T13:49:08.384Z,3.87
2018-07-17T13:51:37.219Z,3.83
2018-07-17T13:54:05.864Z,3.53
2018-07-17T13:56:34.749Z,3.40
2018-07-17T13:59:03.351Z,3.70
2018-07-17T14:01:32.114Z,4.20
2018-07-17T14:04:00.848Z,3.37
2018-07-17T14:06:29.514Z,3.60
2018-07-17T14:08:58.296Z,4.13
2018-07-17T14:11:27.208Z,3.80
2018-07-17T14:13:55.972Z,3.63
2018-07-17T14:16:24.975Z,3.73
2018-07-17T14:18:53.868Z,3.53
2018-07-17T14:21:22.477Z,3.50
2018-07-17T14:23:51.214Z,3.80
2018-07-17T14:26:20.057Z,2.97
2018-07-17T14:28:49.002Z,3.83
2018-07-17T14:31:18.335Z,3.80
2018-07-17T14:33:47.063Z,3.50
2018-07-17T14:36:16.119Z,3.53
2018-07-17T14:38:44.986Z,3.53
2018-07-17T14:41:13.876Z,3.90
2018-07-17T14:43:42.473Z,3.40
2018-07-17T14:46:11.026Z,3.30
2018-07-17T14:48:39.984Z,3.70
2018-07-17T14:51:10.891Z,3.13
2018-07-17T14:53:39.604Z,3.77
2018-07-17T14:56:08.576Z,3.30
2018-07-17T14:58:37.169Z,3.80
2018-07-17T15:01:06.373Z,4.00
2018-07-17T15:03:35.757Z,3.70
2018-07-17T15:06:04.976Z,3.47
2018-07-17T15:08:33.541Z,3.03
2018-07-17T15:11:02.125Z,3.60
2018-07-17T15:13:31.020Z,3.30
2018-07-17T15:15:59.908Z,2.93
2018-07-17T15:18:28.933Z,3.30
2018-07-17T15:20:57.994Z,4.10
2018-07-17T15:23:26.722Z,4.50
2018-07-17T15:25:55.743Z,3.37
2018-07-17T15:28:24.567Z,3.73
2018-07-17T15:30:53.579Z,3.53
2018-07-17T15:33:22.452Z,3.57
2018-07-17T15:35:51.285Z,3.10
2018-07-17T15:38:20.345Z,3.83
2018-07-17T15:40:49.335Z,3.43
2018-07-17T15:43:18.348Z,3.77
2018-07-17T15:45:47.505Z,3.90
2018-07-17T15:48:16.978Z,3.57
2018-07-17T15:50:45.538Z,3.60
2018-07-17T15:53:14.130Z,3.37
2018-07-17T15:55:42.672Z,3.93
2018-07-17T15:58:11.631Z,3.33
2018-07-17T16:00:40.247Z,3.40
2018-07-17T16:03:08.964Z,3.47
2018-07-17T16:05:37.892Z,3.90
2018-07-17T16:08:06.941Z,4.30
2018-07-17T16:10:35.757Z,4.80
2018-07-17T16:13:04.777Z,4.17
2018-07-17T16:15:33.588Z,3.73
2018-07-17T16:18:02.486Z,3.73
2018-07-17T16:20:31.532Z,3.27
2018-07-17T16:23:00.233Z,3.17
2018-07-17T16:25:29.090Z,3.10
2018-07-17T16:27:57.968Z,2.17
2018-07-17T16:30:27.546Z,3.50
2018-07-17T16:32:56.300Z,3.47
2018-07-17T16:35:25.451Z,3.40
2018-07-17T16:37:54.634Z,3.80
2018-07-17T16:40:23.778Z,3.73
2018-07-17T16:42:53.259Z,3.83
2018-07-17T16:45:22.293Z,3.73
2018-07-17T16:47:51.682Z,3.93
2018-07-17T16:50:21.142Z,3.60
2018-07-17T16:52:49.976Z,3.60
2018-07-17T16:55:19.270Z,3.97
2018-07-17T16:57:48.174Z,4.03
2018-07-17T17:00:17.166Z,3.50
2018-07-17T17:02:46.524Z,4.27
2018-07-17T17:05:15.597Z,3.90
2018-07-17T17:07:44.433Z,3.87
2018-07-17T17:10:13.253Z,3.87
2018-07-17T17:12:42.024Z,4.20
2018-07-17T17:15:11.470Z,4.53
2018-07-17T17:17:40.528Z,4.30
2018-07-17T17:20:09.077Z,3.73
2018-07-17T17:22:37.992Z,3.93
2018-07-17T17:25:06.801Z,4.10
2018-07-17T17:27:35.571Z,4.30
2018-07-17T17:30:04.587Z,4.17
2018-07-17T17:32:33.197Z,3.77
2018-07-17T17:35:01.921Z,4.40
2018-07-17T17:37:30.756Z,3.90
2018-07-17T17:39:59.420Z,4.10
2018-07-17T17:42:28.387Z,4.17
2018-07-17T17:44:57.089Z,3.83
2018-07-17T17:47:28.510Z,4.07
2018-07-17T17:49:57.769Z,3.90
2018-07-17T17:52:26.745Z,3.90
2018-07-17T17:54:55.725Z,4.43
2018-07-17T17:57:24.436Z,4.50
2018-07-17T17:59:53.425Z,4.43
2018-07-17T18:02:22.721Z,4.70
2018-07-17T18:04:51.381Z,4.37
2018-07-17T18:07:20.157Z,4.23
2018-07-17T18:09:49.491Z,4.30
2018-07-17T18:12:18.787Z,4.30
2018-07-17T18:14:47.762Z,4.37
2018-07-17T18:17:16.468Z,4.07
2018-07-17T18:19:45.280Z,4.40
2018-07-17T18:22:13.980Z,4.43
2018-07-17T18:24:43.305Z,4.43
2018-07-17T18:27:12.049Z,4.00
2018-07-17T18:29:41.011Z,4.07
2018-07-17T18:32:09.919Z,4.40
2018-07-17T18:34:38.569Z,4.30
2018-07-17T18:37:07.308Z,4.03
2018-07-17T18:39:36.086Z,4.10
2018-07-17T18:42:04.927Z,4.33
2018-07-17T18:44:33.564Z,4.23
2018-07-17T18:47:02.355Z,4.40
2018-07-17T18:49:31.164Z,4.10
2018-07-17T18:52:00.092Z,4.27
2018-07-17T18:54:28.908Z,4.20
2018-07-17T18:56:58.039Z,4.57
2018-07-17T18:59:26.897Z,4.20
2018-07-17T19:01:55.629Z,3.57
2018-07-17T19:04:26.853Z,3.60
2018-07-17T19:06:55.509Z,3.50
2018-07-17T19:09:24.453Z,3.67
2018-07-17T19:11:53.318Z,3.97
2018-07-17T19:14:22.776Z,3.70
2018-07-17T19:16:51.408Z,4.10
2018-07-17T19:19:20.268Z,4.30
2018-07-17T19:21:49.073Z,3.80
2018-07-17T19:24:17.876Z,3.70
2018-07-17T19:26:46.905Z,3.87
2018-07-17T19:29:15.847Z,4.20
2018-07-17T19:31:44.846Z,4.10
2018-07-17T19:34:13.646Z,4.10
2018-07-17T19:36:42.552Z,3.83
2018-07-17T19:39:12.310Z,4.57
2018-07-17T19:41:40.892Z,3.60
2018-07-17T19:44:09.886Z,4.40
2018-07-17T19:46:38.497Z,4.23
2018-07-17T19:49:07.414Z,4.00
2018-07-17T19:51:36.386Z,4.50
2018-07-17T19:54:05.300Z,4.60
2018-07-17T19:56:34.034Z,4.90
2018-07-17T19:59:02.724Z,5.37
2018-07-17T20:01:31.467Z,4.90
2018-07-17T20:04:00.496Z,4.77
2018-07-17T20:06:29.379Z,4.80
2018-07-17T20:08:57.967Z,4.90
2018-07-17T20:11:26.917Z,5.37
2018-07-17T20:13:55.592Z,5.30
2018-07-17T20:16:24.352Z,5.67
2018-07-17T20:18:53.166Z,5.57
2018-07-17T20:21:22.010Z,5.63
2018-07-17T20:23:50.958Z,5.30
2018-07-17T20:26:20.088Z,6.20
2018-07-17T20:28:48.642Z,5.13
2018-07-17T20:31:17.401Z,5.53
2018-07-17T20:33:45.967Z,5.60
2018-07-17T20:36:14.746Z,5.23
2018-07-17T20:38:43.826Z,4.93
2018-07-17T20:41:12.595Z,4.60
2018-07-17T20:43:41.320Z,4.70
2018-07-17T20:46:10.074Z,4.70
2018-07-17T20:48:38.829Z,4.60
2018-07-17T20:51:07.849Z,4.67
2018-07-17T20:53:36.381Z,4.50
2018-07-17T20:56:05.343Z,4.47
2018-07-17T20:58:34.180Z,4.67
2018-07-17T21:01:02.969Z,4.90
2018-07-17T21:03:31.799Z,4.67
2018-07-17T21:06:00.726Z,4.20
2018-07-17T21:08:29.278Z,4.20
2018-07-17T21:10:58.048Z,4.70
2018-07-17T21:13:27.018Z,4.40
2018-07-17T21:15:56.074Z,4.60
2018-07-17T21:18:24.828Z,4.77
2018-07-17T21:20:53.566Z,4.40
2018-07-17T21:23:22.306Z,4.77
2018-07-17T21:25:51.028Z,4.03
2018-07-17T21:28:19.800Z,4.60
2018-07-17T21:30:48.777Z,4.57
2018-07-17T21:33:17.667Z,5.30
2018-07-17T21:35:46.356Z,4.80
2018-07-17T21:38:15.163Z,4.60
2018-07-17T21:40:43.712Z,4.57
2018-07-17T21:43:12.433Z,4.27
2018-07-17T21:45:41.187Z,5.00
2018-07-17T21:48:10.144Z,4.53
2018-07-17T21:50:39.169Z,4.27
2018-07-17T21:53:08.190Z,4.90
2018-07-17T21:55:36.998Z,3.90
2018-07-17T21:58:05.702Z,5.03
2018-07-17T22:00:34.839Z,4.33
2018-07-17T22:03:03.084Z,4.97
2018-07-17T22:05:31.916Z,4.97
2018-07-17T22:08:00.492Z,4.40
2018-07-17T22:10:29.413Z,5.00
2018-07-17T22:12:58.101Z,4.90
2018-07-17T22:15:26.990Z,4.60
2018-07-17T22:17:55.561Z,4.87
2018-07-17T22:20:24.489Z,5.07
2018-07-17T22:22:53.353Z,5.10
2018-07-17T22:25:22.112Z,4.77
2018-07-17T22:27:50.994Z,5.00
2018-07-17T22:30:19.808Z,5.53
2018-07-17T22:32:48.633Z,5.50
2018-07-17T22:35:17.550Z,4.90
2018-07-17T22:37:46.463Z,5.23
2018-07-17T22:40:15.368Z,5.50
2018-07-17T22:42:44.102Z,5.10
2018-07-17T22:45:12.941Z,5.70
2018-07-17T22:47:41.785Z,5.60
2018-07-17T22:50:10.580Z,5.40
2018-07-17T22:52:39.135Z,5.93
2018-07-17T22:55:07.947Z,5.73
2018-07-17T22:57:36.753Z,5.43
2018-07-17T23:00:06.382Z,5.77
2018-07-17T23:02:34.709Z,6.00
2018-07-17T23:05:03.665Z,6.27
2018-07-17T23:07:32.510Z,6.40
2018-07-17T23:10:01.034Z,5.93
2018-07-17T23:12:29.480Z,5.90
2018-07-17T23:14:58.240Z,6.00
2018-07-17T23:17:27.074Z,5.63
2018-07-17T23:19:55.914Z,5.63
2018-07-17T23:22:37.425Z,6.43
2018-07-17T23:25:06.072Z,5.77
2018-07-17T23:27:34.714Z,6.40
2018-07-17T23:30:03.863Z,5.33
2018-07-17T23:32:32.537Z,5.50
2018-07-17T23:35:00.765Z,5.83
2018-07-17T23:37:29.625Z,5.40
2018-07-17T23:39:58.547Z,5.50
2018-07-17T23:42:27.277Z,5.80
2018-07-17T23:44:56.195Z,5.20
2018-07-17T23:47:24.834Z,5.00
2018-07-17T23:49:53.694Z,5.47
2018-07-17T23:52:22.263Z,5.50
2018-07-17T23:54:50.886Z,5.37
2018-07-17T23:57:19.630Z,5.17
2018-07-17T23:59:48.671Z,4.60
